createdAt,value
2024-05-09T00:06:11.362Z,63.37
2024-05-09T00:21:14.508Z,64.38
2024-05-09T00:36:17.458Z,64.57
2024-05-09T00:51:20.421Z,64.90
2024-05-09T01:06:23.359Z,64.97
2024-05-09T01:21:26.460Z,65.80
2024-05-09T01:36:29.411Z,66.62
2024-05-09T01:51:32.213Z,66.86
2024-05-09T02:06:42.465Z,67.08
2024-05-09T02:21:45.643Z,68.23
2024-05-09T02:36:48.670Z,68.20
2024-05-09T02:51:51.653Z,67.64
2024-05-09T03:06:54.746Z,68.01
2024-05-09T03:21:58.806Z,68.48
2024-05-09T03:37:01.908Z,69.17
2024-05-09T03:52:05.342Z,68.90
2024-05-09T04:07:08.188Z,70.40
2024-05-09T04:22:11.161Z,70.64
2024-05-09T04:37:14.402Z,70.51
2024-05-09T04:52:17.200Z,70.25
2024-05-09T05:07:19.957Z,70.05
2024-05-09T05:22:23.159Z,69.79
2024-05-09T05:37:26.307Z,68.42
2024-05-09T05:52:29.209Z,62.17
2024-05-09T06:07:31.988Z,54.94
2024-05-09T06:22:35.430Z,50.52
2024-05-09T06:37:39.540Z,47.94
2024-05-09T06:52:42.750Z,44.71
2024-05-09T07:07:45.768Z,43.67
2024-05-09T07:22:48.829Z,41.87
2024-05-09T07:37:52.192Z,41.44
2024-05-09T08:08:01.491Z,38.96
2024-05-09T08:23:04.814Z,39.20
2024-05-09T08:38:08.205Z,39.43
2024-05-09T08:53:11.367Z,39.84
2024-05-09T09:08:15.946Z,39.01
2024-05-09T09:23:20.115Z,38.53
2024-05-09T09:38:23.815Z,37.29
2024-05-09T09:53:28.323Z,36.96
2024-05-09T10:08:31.549Z,37.65
2024-05-09T10:23:36.304Z,37.22
2024-05-09T10:38:43.310Z,37.22
2024-05-09T10:53:48.134Z,37.25
2024-05-09T11:08:51.579Z,36.13
2024-05-09T11:23:54.973Z,35.73
2024-05-09T11:38:58.197Z,36.36
2024-05-09T11:54:01.444Z,36.63
2024-05-09T12:09:04.443Z,36.55
2024-05-09T12:24:07.561Z,35.78
2024-05-09T12:39:11.090Z,36.30
2024-05-09T12:54:14.386Z,36.59
2024-05-09T13:09:17.518Z,37.06
2024-05-09T13:24:20.420Z,38.00
2024-05-09T13:39:23.355Z,38.61
2024-05-09T13:54:26.484Z,38.38
2024-05-09T14:09:29.580Z,39.14
2024-05-09T14:24:33.174Z,39.66
2024-05-09T14:39:36.398Z,39.77
2024-05-09T14:54:39.570Z,40.29
2024-05-09T15:09:42.661Z,40.14
2024-05-09T15:24:47.882Z,40.19
2024-05-09T15:39:51.086Z,41.15
2024-05-09T15:54:54.112Z,41.04
2024-05-09T16:09:57.053Z,42.06
2024-05-09T16:25:00.238Z,43.02
2024-05-09T16:40:04.511Z,43.31
2024-05-09T16:55:08.942Z,43.59
2024-05-09T17:10:19.359Z,43.86
2024-05-09T17:25:29.485Z,44.42
2024-05-09T17:40:36.472Z,45.29
2024-05-09T17:55:41.874Z,46.17
2024-05-09T18:10:45.315Z,47.55
2024-05-09T18:25:48.653Z,48.97
2024-05-09T18:40:53.131Z,50.41
2024-05-09T18:55:57.763Z,51.98
2024-05-09T19:11:02.130Z,53.20
2024-05-09T19:26:05.996Z,54.16
2024-05-09T19:41:09.187Z,55.26
2024-05-09T19:56:12.509Z,56.10
2024-05-09T20:11:15.792Z,57.05
2024-05-09T20:26:18.664Z,58.08
2024-05-09T20:41:21.504Z,59.48
2024-05-09T20:56:24.775Z,59.64
2024-05-09T21:11:27.757Z,60.04
2024-05-09T21:26:31.015Z,60.28
2024-05-09T21:41:34.395Z,60.02
2024-05-09T21:56:37.385Z,60.56
2024-05-09T22:11:40.232Z,62.50
2024-05-09T22:26:43.312Z,62.93
2024-05-09T22:41:46.322Z,62.59
2024-05-09T22:56:49.156Z,62.53
2024-05-09T23:11:52.456Z,63.03
2024-05-09T23:26:55.593Z,62.43
2024-05-09T23:41:58.401Z,63.17
2024-05-09T23:57:01.202Z,63.22
